Time;durP1;ratioP1;P1;durP2;ratioP2;P2;SDS_P1;SDS_P2;PMS_P1;PMS_P2;Temp;Humidity;BMP_temperature;BMP_pressure;BME280_temperature;BME280_humidity;BME280_pressure;Samples;Min_cycle;Max_cycle;Signal;HPM_P1;HPM_P2
2022/07/23 00:00:26;;;;;;;6.50;3.80;;;;;;;19.01;66.68;101749.16;4974114;28;20027;-84
2022/07/23 00:02:53;;;;;;;7.10;3.53;;;;;;;18.99;67.07;101767.94;4974462;28;20411;-85
2022/07/23 00:05:18;;;;;;;7.40;3.78;;;;;;;18.91;67.38;101759.09;4974359;28;20073;-85
2022/07/23 00:07:43;;;;;;;6.47;3.90;;;;;;;18.88;66.95;101760.91;4974389;28;20047;-84
2022/07/23 00:10:09;;;;;;;7.13;3.95;;;;;;;18.79;67.11;101753.84;4956827;28;20042;-84
2022/07/23 00:12:34;;;;;;;7.80;3.58;;;;;;;18.77;67.52;101775.28;4973142;28;20066;-85
2022/07/23 00:15:00;;;;;;;8.48;3.80;;;;;;;18.85;67.25;101767.19;4974287;28;20053;-85
2022/07/23 00:17:25;;;;;;;4.72;3.38;;;;;;;18.95;67.20;101768.88;4973826;28;20061;-85
2022/07/23 00:19:51;;;;;;;6.88;3.80;;;;;;;18.94;67.29;101767.09;4974376;28;20030;-85
2022/07/23 00:22:16;;;;;;;6.30;3.80;;;;;;;18.89;66.66;101762.69;4974443;28;20375;-85
2022/07/23 00:24:42;;;;;;;7.55;3.90;;;;;;;18.86;66.74;101770.75;4977198;28;20356;-85
2022/07/23 00:27:07;;;;;;;8.43;3.88;;;;;;;18.84;67.12;101764.50;4976349;28;20118;-86
2022/07/23 00:29:32;;;;;;;9.95;3.63;;;;;;;18.87;67.05;101764.50;4977528;28;20035;-85
2022/07/23 00:31:58;;;;;;;5.68;3.58;;;;;;;18.92;66.98;101768.00;4960139;28;20027;-84
2022/07/23 00:34:23;;;;;;;5.80;3.78;;;;;;;18.90;66.64;101753.75;4976399;28;20034;-85
2022/07/23 00:36:49;;;;;;;8.10;3.50;;;;;;;18.95;66.54;101765.31;4976579;28;20042;-85
2022/07/23 00:39:14;;;;;;;7.22;3.95;;;;;;;18.75;66.59;101733.34;4960241;28;20027;-85
2022/07/23 00:41:39;;;;;;;7.80;4.07;;;;;;;18.77;67.20;101756.53;4977302;28;20042;-85
2022/07/23 00:44:22;;;;;;;6.28;3.70;;;;;;;18.79;66.65;101751.16;4976922;28;20074;-85
2022/07/23 00:46:54;;;;;;;5.38;3.65;;;;;;;18.63;66.94;101754.81;4977402;28;20030;-85
2022/07/23 00:49:21;;;;;;;9.50;3.60;;;;;;;18.63;67.17;101768.22;4977264;28;20096;-86
2022/07/23 00:51:47;;;;;;;5.97;3.90;;;;;;;18.61;67.31;101762.88;4977505;28;20050;-85
2022/07/23 00:54:13;;;;;;;7.45;3.80;;;;;;;18.55;67.57;101759.38;4977367;28;20041;-85
2022/07/23 00:56:39;;;;;;;5.72;3.90;;;;;;;18.50;67.60;101757.63;4975864;28;20382;-84
2022/07/23 00:59:07;;;;;;;5.47;3.75;;;;;;;18.35;67.82;101751.47;4977361;28;20035;-84
2022/07/23 01:01:32;;;;;;;7.47;3.63;;;;;;;18.36;67.68;101755.94;4977186;28;20023;-85
2022/07/23 01:03:58;;;;;;;7.72;4.07;;;;;;;18.45;67.46;101758.53;4977538;28;20456;-85
2022/07/23 01:06:23;;;;;;;5.15;3.45;;;;;;;18.37;67.48;101741.63;4977115;28;20038;-86
2022/07/23 01:08:49;;;;;;;6.13;3.75;;;;;;;18.46;67.10;101755.88;4976974;28;20034;-85
2022/07/23 01:11:14;;;;;;;5.60;3.83;;;;;;;18.47;67.33;101748.72;4976722;28;20031;-84
2022/07/23 01:13:43;;;;;;;6.47;3.85;;;;;;;18.44;67.27;101741.59;4977010;28;20045;-84
2022/07/23 01:16:09;;;;;;;7.57;3.70;;;;;;;18.41;66.81;101746.06;4976426;28;20105;-84
2022/07/23 01:18:34;;;;;;;5.85;4.22;;;;;;;18.33;67.66;101751.50;4977045;28;20459;-84
2022/07/23 01:21:00;;;;;;;7.90;4.15;;;;;;;18.33;67.73;101756.84;4976786;28;20538;-84
2022/07/23 01:23:25;;;;;;;5.28;3.60;;;;;;;18.15;67.89;101741.78;4976675;28;20038;-85
2022/07/23 01:25:54;;;;;;;6.78;3.95;;;;;;;18.20;67.96;101748.03;4959505;28;20039;-84
2022/07/23 01:28:20;;;;;;;5.70;3.67;;;;;;;18.21;68.13;101749.78;4976868;28;20026;-85
2022/07/23 01:30:47;;;;;;;6.45;4.00;;;;;;;18.07;68.50;101754.31;4976619;28;20412;-86
2022/07/23 01:33:13;;;;;;;7.07;3.92;;;;;;;17.95;68.86;101747.28;4976683;28;20026;-85
2022/07/23 01:35:38;;;;;;;6.80;3.97;;;;;;;17.70;69.26;101727.75;4976018;28;20391;-84
2022/07/23 01:38:04;;;;;;;7.20;4.20;;;;;;;17.88;69.07;101742.84;4976447;28;20030;-85
2022/07/23 01:40:29;;;;;;;5.78;3.70;;;;;;;17.96;68.59;101750.84;4976503;28;20110;-84
2022/07/23 01:42:54;;;;;;;6.47;3.60;;;;;;;17.95;68.48;101736.56;4976945;28;20030;-86
2022/07/23 01:45:20;;;;;;;6.18;3.80;;;;;;;18.02;68.50;101743.63;4976218;28;20549;-85
2022/07/23 01:47:46;;;;;;;5.07;3.83;;;;;;;17.96;68.06;101738.34;4975966;28;20026;-85
2022/07/23 01:50:12;;;;;;;5.03;3.63;;;;;;;17.84;68.50;101750.88;4976097;28;20491;-84
2022/07/23 01:52:37;;;;;;;6.65;3.80;;;;;;;17.76;68.80;101750.91;4975030;28;20034;-85
2022/07/23 01:55:02;;;;;;;6.68;3.72;;;;;;;17.64;69.27;101750.94;4974961;28;20031;-84
2022/07/23 01:57:28;;;;;;;4.97;3.90;;;;;;;17.59;69.42;101742.94;4976311;28;20370;-84
2022/07/23 01:59:53;;;;;;;5.68;3.83;;;;;;;17.57;69.44;101730.50;4976486;28;20466;-85
2022/07/23 02:02:18;;;;;;;7.40;3.70;;;;;;;17.62;69.24;101734.91;4976081;28;20469;-85
2022/07/23 02:04:44;;;;;;;7.10;3.80;;;;;;;17.62;69.09;101737.56;4974936;28;20066;-84
2022/07/23 02:07:09;;;;;;;6.10;3.63;;;;;;;17.54;68.87;101728.69;4975905;28;20030;-85
2022/07/23 02:09:35;;;;;;;9.85;3.80;;;;;;;17.59;68.78;101737.59;4974577;28;20526;-84
2022/07/23 02:12:00;;;;;;;4.75;3.80;;;;;;;17.62;68.51;101742.94;4974505;28;20045;-85
2022/07/23 02:14:26;;;;;;;6.47;3.95;;;;;;;17.53;68.66;101740.28;4975923;28;20030;-84
2022/07/23 02:16:51;;;;;;;8.13;3.70;;;;;;;17.56;68.33;101742.03;4975877;28;20352;-85
2022/07/23 02:19:16;;;;;;;7.45;3.72;;;;;;;17.51;68.14;101728.69;4975781;28;20467;-84
2022/07/23 02:21:42;;;;;;;5.55;3.60;;;;;;;17.47;68.26;101732.28;4975704;28;20113;-85
2022/07/23 02:24:07;;;;;;;5.70;3.53;;;;;;;17.28;68.67;101718.09;4975598;28;20463;-86
2022/07/23 02:26:34;;;;;;;7.53;3.47;;;;;;;17.33;68.52;101742.13;4975782;28;20027;-85
2022/07/23 02:29:01;;;;;;;5.38;3.63;;;;;;;17.23;68.86;101735.94;4975610;28;20027;-86
2022/07/23 02:31:26;;;;;;;6.75;3.70;;;;;;;17.18;68.72;101719.03;4974444;28;20038;-85
2022/07/23 02:33:52;;;;;;;4.20;3.38;;;;;;;17.23;68.48;101730.59;4975691;28;20463;-85
2022/07/23 02:36:17;;;;;;;4.25;3.22;;;;;;;17.17;68.67;101733.25;4975559;28;20030;-85
2022/07/23 02:38:42;;;;;;;4.85;3.53;;;;;;;17.09;69.27;101735.09;4976651;28;20089;-85
2022/07/23 02:41:08;;;;;;;4.25;3.25;;;;;;;17.06;69.21;101716.38;4975478;28;20443;-85
2022/07/23 02:43:33;;;;;;;5.82;3.60;;;;;;;17.15;68.84;101732.38;4974387;28;20041;-85
2022/07/23 02:45:59;;;;;;;4.72;3.80;;;;;;;17.06;69.02;101724.41;4973532;28;20050;-89
2022/07/23 02:48:24;;;;;;;5.22;3.40;;;;;;;17.02;69.33;101728.84;4974354;28;20035;-85
2022/07/23 02:50:49;;;;;;;5.95;3.50;;;;;;;17.12;69.20;101746.63;4975545;28;20096;-85
2022/07/23 02:53:15;;;;;;;7.70;3.50;;;;;;;17.11;69.20;101747.53;4975106;28;20031;-85
2022/07/23 02:55:40;;;;;;;8.65;3.55;;;;;;;17.10;69.28;101737.75;4974894;28;20097;-85
2022/07/23 02:58:05;;;;;;;8.52;3.65;;;;;;;17.18;68.93;101743.06;4974017;28;20037;-85
2022/07/23 03:00:31;;;;;;;7.03;4.00;;;;;;;17.05;69.06;101733.31;4975157;28;20031;-85
2022/07/23 03:02:56;;;;;;;4.80;3.50;;;;;;;17.01;69.57;101746.66;4975045;28;20363;-84
2022/07/23 03:05:22;;;;;;;5.72;3.75;;;;;;;16.88;70.04;101739.56;4974899;28;20066;-85
2022/07/23 03:07:47;;;;;;;5.22;3.70;;;;;;;16.82;70.36;101754.66;4957423;28;20030;-85
2022/07/23 03:10:12;;;;;;;5.07;3.72;;;;;;;16.77;70.36;101755.56;4975053;28;20030;-85
2022/07/23 03:12:38;;;;;;;5.80;4.03;;;;;;;16.77;70.37;101755.56;4973967;28;20426;-85
2022/07/23 03:15:04;;;;;;;4.90;3.72;;;;;;;16.70;70.21;101745.75;4974629;28;20030;-86
2022/07/23 03:17:29;;;;;;;7.80;4.15;;;;;;;16.75;70.22;101762.69;4973414;28;20062;-85
2022/07/23 03:19:54;;;;;;;7.30;4.05;;;;;;;16.68;70.02;101743.97;4974909;28;20426;-85
2022/07/23 03:22:20;;;;;;;8.50;4.38;;;;;;;16.62;70.74;101755.53;4973442;28;20356;-85
2022/07/23 03:24:54;;;;;;;6.95;3.88;;;;;;;16.53;70.75;101745.75;4973341;28;20043;-85
2022/07/23 03:27:25;;;;;;;6.90;4.60;;;;;;;16.53;70.77;101744.88;4973777;28;20490;-85
2022/07/23 03:29:51;;;;;;;8.43;4.32;;;;;;;16.54;70.79;101757.31;4974562;28;20084;-85
2022/07/23 03:32:17;;;;;;;7.25;4.32;;;;;;;16.49;70.61;101759.97;4973573;28;20122;-85
2022/07/23 03:34:42;;;;;;;6.43;4.05;;;;;;;16.51;70.83;101766.19;4974428;28;20184;-85
2022/07/23 03:37:08;;;;;;;9.98;4.47;;;;;;;16.41;70.53;101745.75;4974575;28;20023;-84
2022/07/23 03:39:33;;;;;;;6.35;4.05;;;;;;;16.44;70.96;101752.84;4974750;28;20118;-85
2022/07/23 03:41:59;;;;;;;7.85;4.22;;;;;;;16.50;70.57;101756.41;4973468;28;20038;-85
2022/07/23 03:44:24;;;;;;;6.75;3.92;;;;;;;16.53;70.55;101760.88;4974426;28;20050;-85
2022/07/23 03:46:49;;;;;;;6.68;4.18;;;;;;;16.40;70.99;101753.72;4974066;28;20489;-85
2022/07/23 03:49:15;;;;;;;8.30;4.43;;;;;;;16.29;71.07;101753.72;4972946;28;20037;-85
2022/07/23 03:51:40;;;;;;;7.53;4.20;;;;;;;16.41;71.24;101764.41;4974087;28;20050;-86
2022/07/23 03:54:05;;;;;;;9.88;4.05;;;;;;;16.42;70.67;101749.28;4972713;28;20058;-84
2022/07/23 03:56:31;;;;;;;7.28;4.00;;;;;;;16.28;70.60;101743.94;4973645;28;20031;-84
2022/07/23 03:58:56;;;;;;;8.20;4.20;;;;;;;16.40;70.91;101759.97;4976395;28;20031;-85
2022/07/23 04:01:22;;;;;;;6.00;4.25;;;;;;;16.34;71.00;101759.94;4977603;28;20081;-85
2022/07/23 04:03:47;;;;;;;6.20;4.40;;;;;;;16.31;71.21;101761.72;4976410;28;20045;-85
2022/07/23 04:06:13;;;;;;;8.30;4.63;;;;;;;16.36;71.33;101774.19;4977338;28;20041;-85
2022/07/23 04:08:38;;;;;;;8.27;4.72;;;;;;;16.34;71.19;101772.41;4977755;28;20035;-86
2022/07/23 04:11:04;;;;;;;9.95;4.30;;;;;;;16.38;71.22;101766.19;4977428;28;20113;-85
2022/07/23 04:13:29;;;;;;;7.93;4.72;;;;;;;16.29;70.92;101759.06;4977166;28;20030;-85
2022/07/23 04:15:55;;;;;;;9.18;5.07;;;;;;;16.33;71.27;101768.84;4977293;28;20085;-85
2022/07/23 04:18:23;;;;;;;6.95;4.97;;;;;;;16.31;71.81;101767.94;4975880;28;20074;-84
2022/07/23 04:20:50;;;;;;;8.98;4.63;;;;;;;16.21;71.81;101761.69;4975920;28;20046;-85
2022/07/23 04:23:16;;;;;;;11.13;4.90;;;;;;;16.24;71.91;101775.06;4977751;28;20148;-85
2022/07/23 04:25:42;;;;;;;7.35;4.55;;;;;;;16.23;72.41;101775.94;4977276;28;20460;-86
2022/07/23 04:28:07;;;;;;;7.03;4.55;;;;;;;16.22;72.69;101781.25;4977805;28;20382;-84
2022/07/23 04:30:33;;;;;;;7.15;5.18;;;;;;;16.24;72.83;101785.72;4977369;28;20101;-84
2022/07/23 04:32:58;;;;;;;7.00;4.93;;;;;;;16.28;72.91;101786.63;4976955;28;20112;-84
2022/07/23 04:35:24;;;;;;;6.18;4.82;;;;;;;16.31;72.90;101772.38;4977149;28;20023;-84
2022/07/23 04:37:49;;;;;;;8.57;5.20;;;;;;;16.31;72.71;101780.38;4977146;28;20030;-84
2022/07/23 04:40:14;;;;;;;12.45;5.15;;;;;;;16.34;72.08;101775.06;4976953;28;20038;-84
2022/07/23 04:42:40;;;;;;;8.18;4.97;;;;;;;16.50;71.60;101791.09;4959703;28;20038;-84
2022/07/23 04:45:06;;;;;;;10.82;4.80;;;;;;;16.51;71.88;101792.00;4976720;28;20047;-84
2022/07/23 04:47:32;;;;;;;7.53;5.18;;;;;;;16.49;72.29;101788.44;4976436;28;20166;-85
2022/07/23 04:49:57;;;;;;;7.50;4.97;;;;;;;16.58;72.16;101803.56;4976873;28;20034;-85
2022/07/23 04:52:23;;;;;;;9.50;5.53;;;;;;;16.58;72.91;101809.81;4976818;28;20031;-85
2022/07/23 04:54:48;;;;;;;9.15;5.63;;;;;;;16.49;73.54;101804.44;4976680;28;20065;-85
2022/07/23 04:57:14;;;;;;;8.50;5.68;;;;;;;16.52;73.28;101801.78;4975458;28;20408;-85
2022/07/23 04:59:39;;;;;;;10.50;5.85;;;;;;;16.52;73.33;101791.97;4975552;28;20026;-84
2022/07/23 05:02:05;;;;;;;7.38;6.13;;;;;;;16.66;73.76;101804.44;4976453;28;20037;-84
2022/07/23 05:04:31;;;;;;;9.77;6.05;;;;;;;16.74;73.43;101806.31;4975070;28;20038;-84
2022/07/23 05:06:57;;;;;;;9.10;6.10;;;;;;;16.83;73.02;101807.16;4976546;28;20053;-84
2022/07/23 05:09:22;;;;;;;12.25;6.20;;;;;;;16.92;73.36;101820.53;4975963;28;20439;-84
2022/07/23 05:11:47;;;;;;;10.80;6.32;;;;;;;16.93;73.13;101815.19;4975364;28;20026;-85
2022/07/23 05:14:13;;;;;;;10.25;6.40;;;;;;;16.96;73.19;101799.19;4976304;28;20543;-84
2022/07/23 05:16:38;;;;;;;9.70;6.47;;;;;;;17.03;73.04;101802.72;4976295;28;20383;-86
2022/07/23 05:19:04;;;;;;;12.50;6.60;;;;;;;17.06;73.07;101800.06;4976858;28;20081;-86
2022/07/23 05:21:29;;;;;;;17.98;6.70;;;;;;;17.15;72.85;101802.72;4976245;28;20482;-86
2022/07/23 05:23:56;;;;;;;9.88;6.30;;;;;;;17.23;73.27;101819.63;4974962;28;20070;-86
2022/07/23 05:26:21;;;;;;;13.45;6.68;;;;;;;17.36;72.88;101819.63;4976027;28;20407;-86
2022/07/23 05:28:46;;;;;;;11.68;6.10;;;;;;;17.49;73.02;101818.69;4975992;28;20031;-87
2022/07/23 05:31:12;;;;;;;7.78;6.60;;;;;;;17.62;71.84;101812.41;4974877;28;20029;-86
2022/07/23 05:33:37;;;;;;;9.25;6.45;;;;;;;17.65;72.46;101816.88;4974635;28;20042;-86
2022/07/23 05:36:06;;;;;;;11.43;6.70;;;;;;;17.69;71.96;101819.53;4975978;28;20387;-88
2022/07/23 05:38:32;;;;;;;12.63;6.88;;;;;;;17.74;72.45;101817.75;4976583;28;20023;-87
2022/07/23 05:40:58;;;;;;;10.35;6.43;;;;;;;17.78;71.70;101805.28;4974575;28;20120;-86
2022/07/23 05:43:24;;;;;;;8.48;6.63;;;;;;;18.01;71.83;101819.44;4974731;28;20065;-85
2022/07/23 05:45:49;;;;;;;12.15;6.95;;;;;;;18.07;71.43;101828.31;4975534;28;20068;-85
2022/07/23 05:48:15;;;;;;;13.18;7.18;;;;;;;18.15;71.24;101832.75;4975496;28;20036;-84
2022/07/23 05:50:40;;;;;;;9.02;6.82;;;;;;;18.30;70.81;101828.22;4974333;28;20522;-84
2022/07/23 05:53:06;;;;;;;9.05;6.93;;;;;;;18.39;70.90;101846.91;4976366;28;20029;-85
2022/07/23 05:55:31;;;;;;;10.60;7.05;;;;;;;18.45;70.73;101844.19;4974222;28;20463;-81
2022/07/23 05:57:58;;;;;;;11.23;6.78;;;;;;;18.58;68.91;101840.53;4975524;28;20035;-85
2022/07/23 06:00:24;;;;;;;11.45;6.68;;;;;;;18.77;69.04;101844.03;4975696;28;20068;-86
2022/07/23 06:02:49;;;;;;;9.90;6.35;;;;;;;18.97;68.40;101851.88;4975875;28;20036;-86
2022/07/23 06:05:15;;;;;;;9.82;6.72;;;;;;;18.99;68.84;101840.28;4975458;28;20121;-85
2022/07/23 06:07:40;;;;;;;8.25;6.32;;;;;;;19.19;67.20;101844.59;4975581;28;20031;-85
2022/07/23 06:10:06;;;;;;;9.38;6.88;;;;;;;19.24;67.29;101842.75;4975333;28;20053;-85
2022/07/23 06:12:32;;;;;;;9.07;6.00;;;;;;;19.42;65.98;101847.03;4975477;28;20483;-85
2022/07/23 06:14:57;;;;;;;8.10;6.28;;;;;;;19.50;66.56;101854.09;4975425;28;20050;-85
2022/07/23 06:17:23;;;;;;;10.75;6.70;;;;;;;19.46;66.94;101844.31;4975131;28;20045;-86
2022/07/23 06:19:48;;;;;;;10.73;6.50;;;;;;;19.52;67.33;101843.34;4975427;28;20032;-86
2022/07/23 06:22:13;;;;;;;9.18;6.40;;;;;;;19.54;67.02;101833.50;4974221;28;20113;-86
2022/07/23 06:24:39;;;;;;;9.48;6.38;;;;;;;19.83;66.09;101843.03;4974974;28;20114;-85
2022/07/23 06:27:04;;;;;;;8.32;6.50;;;;;;;19.92;66.27;101851.00;4975121;28;20453;-85
2022/07/23 06:29:30;;;;;;;9.48;6.55;;;;;;;19.95;66.19;101850.94;4973662;28;20039;-85
2022/07/23 06:31:55;;;;;;;8.13;6.05;;;;;;;20.02;65.36;101850.88;4957630;28;20486;-85
2022/07/23 06:34:20;;;;;;;9.18;6.45;;;;;;;20.14;66.28;101848.94;4973355;28;20058;-85
2022/07/23 06:36:46;;;;;;;8.02;5.30;;;;;;;20.30;64.59;101854.97;4973501;28;20038;-85
2022/07/23 06:39:11;;;;;;;11.73;6.32;;;;;;;20.35;65.74;101859.41;4974885;28;20386;-85
2022/07/23 06:41:36;;;;;;;9.68;5.70;;;;;;;20.43;63.31;101848.56;4975227;28;20030;-85
2022/07/23 06:44:02;;;;;;;8.38;5.80;;;;;;;20.54;63.46;101857.38;4957237;28;20489;-85
2022/07/23 06:46:27;;;;;;;10.88;5.82;;;;;;;20.75;62.98;101861.53;4974480;28;20432;-85
2022/07/23 06:48:53;;;;;;;10.65;5.80;;;;;;;20.84;61.94;101849.75;4974846;28;20027;-86
2022/07/23 06:51:18;;;;;;;9.73;5.40;;;;;;;20.94;60.33;101851.38;4974936;28;20029;-84
2022/07/23 06:53:44;;;;;;;9.20;5.65;;;;;;;21.05;63.02;101857.47;4974781;28;20050;-84
2022/07/23 06:56:09;;;;;;;9.32;5.45;;;;;;;21.23;61.87;101851.78;4973349;28;20133;-83
2022/07/23 06:58:35;;;;;;;8.70;5.05;;;;;;;21.32;60.17;101856.13;4974531;28;20027;-84
2022/07/23 07:01:00;;;;;;;7.78;5.10;;;;;;;21.45;59.53;101856.81;4974245;28;20090;-84
2022/07/23 07:03:25;;;;;;;7.75;5.28;;;;;;;21.60;59.48;101864.59;4957034;28;20031;-84
2022/07/23 07:05:51;;;;;;;8.63;5.72;;;;;;;21.69;58.06;101860.84;4974412;28;20058;-84
2022/07/23 07:08:17;;;;;;;7.05;5.63;;;;;;;21.77;59.38;101841.88;4974617;28;20034;-84
2022/07/23 07:10:42;;;;;;;9.18;5.20;;;;;;;22.00;58.84;101864.69;4974282;28;20073;-84
2022/07/23 07:13:08;;;;;;;10.90;5.10;;;;;;;22.13;57.49;101846.53;4973261;28;20360;-84
2022/07/23 07:15:33;;;;;;;9.65;5.20;;;;;;;22.19;56.83;101854.47;4974311;28;20035;-85
2022/07/23 07:17:59;;;;;;;9.07;4.57;;;;;;;22.35;56.62;101841.53;4973791;28;20353;-85
2022/07/23 07:20:24;;;;;;;8.43;5.00;;;;;;;22.48;56.76;101847.53;4972958;28;20066;-85
2022/07/23 07:22:49;;;;;;;8.00;5.00;;;;;;;22.72;55.33;101855.06;4974005;28;20431;-84
2022/07/23 07:25:15;;;;;;;8.25;4.90;;;;;;;22.87;56.94;101839.44;4972767;28;20129;-84
2022/07/23 07:27:41;;;;;;;7.60;5.13;;;;;;;22.92;55.10;101840.28;4973848;28;20031;-84
2022/07/23 07:30:07;;;;;;;7.60;5.38;;;;;;;23.15;53.61;101862.13;4972933;28;20092;-84
2022/07/23 07:32:33;;;;;;;7.70;5.25;;;;;;;23.22;54.66;101852.97;4973438;28;20031;-84
2022/07/23 07:34:59;;;;;;;8.60;5.13;;;;;;;23.40;52.28;101869.59;4973723;28;20035;-84
2022/07/23 07:37:24;;;;;;;11.32;5.40;;;;;;;23.41;51.96;101855.19;4973962;28;20034;-84
2022/07/23 07:39:49;;;;;;;8.05;5.20;;;;;;;23.68;50.70;101864.38;4972809;28;20422;-83
2022/07/23 07:42:15;;;;;;;7.38;5.15;;;;;;;23.72;49.32;101868.75;4972928;28;20447;-84
2022/07/23 07:44:40;;;;;;;9.50;5.00;;;;;;;23.73;50.36;101855.25;4973949;28;20047;-84
2022/07/23 07:47:06;;;;;;;11.00;5.43;;;;;;;23.92;50.63;101858.28;4973601;28;20039;-83
2022/07/23 07:49:31;;;;;;;7.95;4.65;;;;;;;24.00;50.80;101863.47;4973505;28;20463;-83
2022/07/23 07:51:57;;;;;;;7.22;4.88;;;;;;;24.03;48.90;101855.28;4973948;28;20023;-83
2022/07/23 07:54:22;;;;;;;9.35;4.80;;;;;;;24.06;50.00;101846.19;4972373;28;20039;-83
2022/07/23 07:56:48;;;;;;;9.02;4.80;;;;;;;24.33;50.79;101858.91;4973916;28;20058;-83
2022/07/23 07:59:14;;;;;;;7.30;5.10;;;;;;;24.34;48.54;101860.66;4972507;28;20081;-83
2022/07/23 08:01:40;;;;;;;9.73;5.15;;;;;;;24.23;49.34;101858.25;4972505;28;20027;-83
2022/07/23 08:04:05;;;;;;;8.60;4.68;;;;;;;24.50;48.84;101866.53;4972208;28;20042;-83
2022/07/23 08:06:31;;;;;;;8.65;4.57;;;;;;;24.70;48.95;101872.16;4972189;28;20038;-84
2022/07/23 08:08:56;;;;;;;9.77;4.43;;;;;;;24.77;47.00;101872.88;4972243;28;20030;-83
2022/07/23 08:11:21;;;;;;;10.18;4.38;;;;;;;24.84;45.38;101868.13;4973575;28;20169;-83
2022/07/23 08:13:47;;;;;;;7.95;4.57;;;;;;;25.00;45.53;101877.50;4974026;28;20027;-83
2022/07/23 08:16:13;;;;;;;9.15;4.63;;;;;;;25.12;46.09;101868.16;4972328;28;20138;-83
2022/07/23 08:18:38;;;;;;;5.65;4.35;;;;;;;25.20;44.64;101869.66;4973470;28;20451;-83
2022/07/23 08:21:06;;;;;;;9.35;4.50;;;;;;;25.53;45.27;101872.16;4973300;28;20062;-83
2022/07/23 08:23:32;;;;;;;6.95;4.30;;;;;;;25.52;45.09;101873.06;4973593;28;20034;-86
2022/07/23 08:25:59;;;;;;;6.05;4.20;;;;;;;25.54;45.11;101852.25;4973386;28;20026;-83
2022/07/23 08:28:25;;;;;;;9.30;4.30;;;;;;;25.73;45.54;101861.47;4972157;28;20464;-84
2022/07/23 08:30:51;;;;;;;8.23;4.40;;;;;;;25.85;42.57;101871.00;4956320;28;20041;-82
2022/07/23 08:33:18;;;;;;;6.05;4.10;;;;;;;25.92;44.35;101888.81;4973146;28;20031;-83
2022/07/23 08:35:46;;;;;;;7.13;4.20;;;;;;;26.00;40.41;101887.66;4972217;28;20356;-82
2022/07/23 08:38:13;;;;;;;7.32;4.30;;;;;;;26.30;42.50;101881.06;4973293;28;20041;-83
2022/07/23 08:40:41;;;;;;;8.00;4.13;;;;;;;26.32;42.67;101897.25;4972026;28;20082;-82
2022/07/23 08:43:09;;;;;;;9.20;4.60;;;;;;;26.21;41.97;101898.56;4972474;28;20039;-83
2022/07/23 08:45:46;;;;;;;7.10;4.30;;;;;;;25.97;42.81;101888.63;4974604;28;20134;-83
2022/07/23 08:48:17;;;;;;;9.55;4.45;;;;;;;25.81;43.63;101898.25;4976789;28;20031;-82
2022/07/23 08:50:51;;;;;;;7.18;3.72;;;;;;;26.07;43.10;101900.88;4975087;28;20038;-82
2022/07/23 08:53:18;;;;;;;5.95;3.83;;;;;;;26.13;42.80;101873.59;4976838;28;20058;-83
2022/07/23 08:55:45;;;;;;;7.65;4.03;;;;;;;26.25;41.03;101895.72;4975335;28;20459;-83
2022/07/23 08:58:11;;;;;;;6.05;3.85;;;;;;;26.11;41.38;101883.56;4976473;28;20030;-83
2022/07/23 09:00:37;;;;;;;7.53;4.00;;;;;;;26.14;41.56;101896.13;4976653;28;20069;-83
2022/07/23 09:03:03;;;;;;;7.47;3.92;;;;;;;26.33;41.61;101893.59;4976448;28;20054;-82
2022/07/23 09:05:28;;;;;;;6.28;4.30;;;;;;;26.53;40.33;101895.56;4974976;28;20035;-82
2022/07/23 09:08:10;;;;;;;7.07;3.58;;;;;;;26.99;42.14;101904.59;4975055;28;20484;-82
2022/07/23 09:10:59;;;;;;;;;;;;;;;27.36;42.74;101899.41;4977262;28;20037;-83
2022/07/23 09:13:24;;;;;;;7.30;3.38;;;;;;;27.42;39.28;101892.84;4969719;28;19906;-82
2022/07/23 09:15:51;;;;;;;6.35;3.60;;;;;;;27.53;39.25;101889.66;4976357;28;20037;-83
2022/07/23 09:18:17;;;;;;;7.65;3.55;;;;;;;27.66;39.19;101888.16;4976091;28;20035;-83
2022/07/23 09:20:44;;;;;;;6.85;4.00;;;;;;;27.56;38.75;101878.66;4976021;28;20031;-83
2022/07/23 09:23:09;;;;;;;7.18;4.05;;;;;;;27.96;39.55;101872.34;4974717;28;20027;-83
2022/07/23 09:25:35;;;;;;;6.93;4.07;;;;;;;28.18;38.15;101866.81;4974780;28;20089;-82
2022/07/23 09:28:02;;;;;;;8.73;3.83;;;;;;;27.90;38.45;101870.81;4976041;28;20057;-83
2022/07/23 09:30:32;;;;;;;7.30;3.85;;;;;;;27.96;40.01;101866.91;4975983;28;20035;-83
2022/07/23 09:33:07;;;;;;;6.22;3.63;;;;;;;28.06;39.05;101879.13;4974672;28;20031;-82
2022/07/23 09:36:05;;;;;;;6.80;4.10;;;;;;;28.10;38.20;101866.31;4975690;28;20114;-82
2022/07/23 09:38:30;;;;;;;5.90;3.63;;;;;;;28.18;37.57;101867.69;4974739;28;20030;-82
2022/07/23 09:41:07;;;;;;;7.03;3.50;;;;;;;28.41;37.59;101879.34;4974546;28;20094;-82
2022/07/23 09:43:32;;;;;;;6.88;4.00;;;;;;;28.49;36.51;101892.59;4975694;28;20030;-82
2022/07/23 09:46:26;;;;;;;5.30;3.15;;;;;;;28.82;37.12;101892.78;4974530;28;20058;-82
2022/07/23 09:48:58;;;;;;;7.90;3.80;;;;;;;28.76;36.09;101884.94;4976146;28;20034;-82
2022/07/23 09:51:28;;;;;;;5.38;3.53;;;;;;;28.67;36.67;101897.13;4974296;28;20467;-82
2022/07/23 09:53:53;;;;;;;6.15;3.60;;;;;;;28.87;37.10;101879.84;4958768;28;20108;-82
2022/07/23 09:56:20;;;;;;;6.00;3.38;;;;;;;29.02;37.08;101892.72;4975258;28;20455;-82
2022/07/23 09:58:49;;;;;;;6.03;3.65;;;;;;;29.06;35.92;101886.16;4990832;28;20111;-82
2022/07/23 10:01:15;;;;;;;4.75;3.42;;;;;;;28.95;33.88;101886.69;4974126;28;20022;-82
2022/07/23 10:03:42;;;;;;;5.95;3.22;;;;;;;29.01;34.04;101873.75;4975410;28;20471;-82
2022/07/23 10:06:13;;;;;;;6.68;3.40;;;;;;;29.06;34.28;101883.44;4975258;28;20126;-82
2022/07/23 10:08:41;;;;;;;6.78;3.17;;;;;;;29.15;34.71;101880.25;4975195;28;20058;-82
2022/07/23 10:11:07;;;;;;;7.18;3.05;;;;;;;29.37;34.58;101885.47;4974130;28;20038;-84
2022/07/23 10:16:16;;;;;;;6.93;3.30;;;;;;;29.93;31.62;101891.63;4974778;28;20043;-83
2022/07/23 10:18:42;;;;;;;7.65;3.20;;;;;;;29.91;33.46;101886.28;4974945;28;20031;-82
2022/07/23 10:21:15;;;;;;;4.68;3.20;;;;;;;29.56;32.23;101888.16;4973942;28;20097;-82
2022/07/23 10:24:03;;;;;;;7.05;4.18;;;;;;;29.35;34.54;101897.41;4974971;28;20022;-82
2022/07/23 10:26:41;;;;;;;5.78;3.70;;;;;;;28.81;33.97;101881.00;4973568;28;20027;-82
2022/07/23 10:29:24;;;;;;;6.85;3.08;;;;;;;28.84;34.27;101890.88;4973835;28;20026;-82
2022/07/23 10:32:14;;;;;;;6.45;2.80;;;;;;;29.29;34.81;101879.53;4973841;28;20035;-83
2022/07/23 10:34:58;;;;;;;5.93;2.80;;;;;;;29.75;32.63;101885.34;4973652;28;20026;-82
2022/07/23 10:37:40;;;;;;;5.40;3.10;;;;;;;29.91;32.53;101896.31;4975169;28;20360;-82
2022/07/23 10:40:32;;;;;;;5.60;3.78;;;;;;;30.21;33.66;101890.19;4973280;28;20031;-82
2022/07/23 10:43:00;;;;;;;7.15;4.03;;;;;;;30.17;33.40;101889.47;4970851;28;20062;-82
2022/07/23 10:45:36;;;;;;;5.43;3.88;;;;;;;30.48;33.57;101882.31;4974391;28;20557;-82
2022/07/23 10:48:26;;;;;;;7.57;3.70;;;;;;;30.58;33.52;101881.72;4974389;28;20026;-82
2022/07/23 10:51:16;;;;;;;6.10;3.95;;;;;;;30.80;32.79;101889.56;4973403;28;20018;-82
2022/07/23 10:53:55;;;;;;;6.90;4.15;;;;;;;30.92;32.06;101877.94;4974721;28;20023;-82
2022/07/23 10:56:49;;;;;;;7.28;3.63;;;;;;;31.22;32.88;101881.66;4973378;28;20109;-83
2022/07/23 10:59:14;;;;;;;5.75;3.28;;;;;;;31.14;31.53;101880.28;4973268;28;20062;-82
2022/07/23 11:01:40;;;;;;;5.80;3.30;;;;;;;31.01;31.94;101879.25;4973116;28;20062;-82
2022/07/23 11:04:09;;;;;;;6.70;3.10;;;;;;;31.31;30.16;101882.03;4974692;28;20439;-83
2022/07/23 11:06:49;;;;;;;5.57;3.28;;;;;;;31.43;31.24;101883.13;4975215;28;20058;-82
2022/07/23 11:09:41;;;;;;;5.18;3.10;;;;;;;31.54;30.72;101869.72;4975360;28;20422;-83
2022/07/23 11:12:12;;;;;;;4.78;2.92;;;;;;;31.45;30.24;101883.06;4974222;28;20062;-82
2022/07/23 11:14:59;;;;;;;3.67;2.70;;;;;;;31.81;31.95;101880.78;4974169;28;20030;-83
2022/07/23 11:17:26;;;;;;;6.30;2.97;;;;;;;31.88;29.45;101879.47;4974784;28;20065;-83
2022/07/23 11:20:11;;;;;;;4.50;3.10;;;;;;;32.01;30.15;101875.97;4974619;28;20530;-82
2022/07/23 11:22:46;;;;;;;4.50;3.13;;;;;;;32.09;29.66;101865.44;4974575;28;20034;-83
2022/07/23 11:25:12;;;;;;;6.80;3.08;;;;;;;31.95;29.58;101866.31;4974377;28;20025;-83
2022/07/23 11:27:44;;;;;;;6.53;2.53;;;;;;;31.88;29.97;101863.06;4972854;28;20030;-82